M I D A S
Marine Information and Data Acquisition System
Tripno 448 of the Zeeleeuw from 2003-03-19 07:25:30 to 2003-03-19 14:17:29
Back to CruiseResearch ActivitiesStationsMapUnderway DataData graphs

EquipmentUnitsComment
TimeDGPSUTC
LatitudeDGPSDM.mWGS84
LongitudeDGPSDM.mWGS84
HeadingGyrodeg 
SOGDGPSknotsSpeed over ground
COGDGPSdegCourse over ground
DepthEcho soundermeters200 kHz
Missing or incorrect values are displayed as -999
Navigation data collected by the RV Zeeleeuw from 2003-03-19 07:25:30 to 2003-03-19 14:17:29
                                                                                    Next 1000 lines
Time Latitude Longitude Heading SOG COG Depth
2003-03-19 07:25:38 51°13.599 2°56.106 125.5   200 5.8
2003-03-19 07:25:42 51°13.599 2°56.106 125.1   171 5.8
2003-03-19 07:25:48 51°13.599 2°56.106 124.4   208 5.8
2003-03-19 07:25:54 51°13.599 2°56.106 123.7   245 5.8
2003-03-19 07:25:58 51°13.599 2°56.106 123.2   213 5.8
2003-03-19 07:26:04 51°13.599 2°56.106 122.5   182 5.8
2003-03-19 07:26:08 51°13.599 2°56.106 121.9 0.1 185 5.8
2003-03-19 07:26:14 51°13.599 2°56.106 121.2 0.1 179 5.8
2003-03-19 07:26:18 51°13.599 2°56.105 120.6 0.1 167 5.8
2003-03-19 07:26:22 51°13.599 2°56.105 120.1   184 5.8
2003-03-19 07:26:28 51°13.599 2°56.105 119.6 0.1 168 5.8
2003-03-19 07:26:32 51°13.599 2°56.105 119 0.1 155 5.8
2003-03-19 07:26:38 51°13.599 2°56.105 118.5 0.1 158 5.8
2003-03-19 07:26:44 51°13.599 2°56.105 117.8 0.1 174 5.8
2003-03-19 07:26:48 51°13.598 2°56.105 117.4   204 5.8
2003-03-19 07:26:53 51°13.598 2°56.104 116.7   245 5.8
2003-03-19 07:26:58 51°13.598 2°56.104 116.1   256 5.8
2003-03-19 07:27:02 51°13.598 2°56.104 115.4   210 5.8
2003-03-19 07:27:08 51°13.598 2°56.104 114.8   197 5.9
2003-03-19 07:27:13 51°13.597 2°56.104 114.2   202 5.9
2003-03-19 07:27:18 51°13.598 2°56.103 113.8   235 5.9
2003-03-19 07:27:24 51°13.598 2°56.104 113.3   276 5.9
2003-03-19 07:27:28 51°13.598 2°56.104 112.8   252 5.9
2003-03-19 07:27:34 51°13.598 2°56.104 112.5 0.1 322 5.9
2003-03-19 07:27:38 51°13.598 2°56.103 112.5 0.2 311 5.9
2003-03-19 07:27:44 51°13.599 2°56.102 112.5 0.4 295 6
2003-03-19 07:27:48 51°13.599 2°56.1 112.5 0.8 294 6
2003-03-19 07:27:53 51°13.599 2°56.097 112.5 1.2 292 6
2003-03-19 07:27:58 51°13.6 2°56.094 112.5 1.6 292 6
2003-03-19 07:28:04 51°13.601 2°56.088 112.5 2 291 -999
2003-03-19 07:28:10 51°13.602 2°56.082 112.5 2.4 292 -999
2003-03-19 07:28:14 51°13.604 2°56.077 112.6 2.7 292 -999
2003-03-19 07:28:20 51°13.605 2°56.069 112.7 3 292 -999
2003-03-19 07:28:25 51°13.606 2°56.062 112.7 3.2 291 -999
2003-03-19 07:28:30 51°13.608 2°56.055 112.5 3.4 291 -999
2003-03-19 07:28:34 51°13.609 2°56.048 112.2 3.7 290 -999
2003-03-19 07:28:39 51°13.611 2°56.041 111.7 3.8 290 -999
2003-03-19 07:28:44 51°13.612 2°56.033 110.8 3.7 288 -999
2003-03-19 07:28:50 51°13.614 2°56.025 109.8 3.5 287 -999
2003-03-19 07:28:54 51°13.615 2°56.02 109.6 3.2 287 4.8
2003-03-19 07:28:58 51°13.615 2°56.015 109.6 3 286 7.5
2003-03-19 07:29:02 51°13.616 2°56.011 109.9 2.7 285 7.5
2003-03-19 07:29:09 51°13.617 2°56.003 110.3 2.5 285 7.5
2003-03-19 07:29:13 51°13.618 2°56 111.1 2.3 285 7.6
2003-03-19 07:29:18 51°13.619 2°55.995 112 2.2 286 9.1
2003-03-19 07:29:24 51°13.62 2°55.991 112.7 2 286 7.5
2003-03-19 07:29:28 51°13.621 2°55.988 113.4 1.9 287 7.4
2003-03-19 07:29:34 51°13.621 2°55.984 114.2 1.7 288 7.5
2003-03-19 07:29:38 51°13.622 2°55.981 115.2 1.5 289 7.5
2003-03-19 07:29:44 51°13.623 2°55.978 116.1 1.4 289 6.7
2003-03-19 07:29:49 51°13.624 2°55.975 116.5 1.4 290 8.6
2003-03-19 07:29:54 51°13.625 2°55.971 117 1.6 292 7.1
2003-03-19 07:29:58 51°13.626 2°55.968 117.6 1.9 292 6.8
2003-03-19 07:30:02 51°13.627 2°55.964 118.6 2.2 294 7.5
2003-03-19 07:30:09 51°13.629 2°55.957 119.5 2.5 294 -999
2003-03-19 07:30:15 51°13.631 2°55.949 120.2 2.9 296 -999
2003-03-19 07:30:20 51°13.633 2°55.941 120.8 3.3 296 -999
2003-03-19 07:30:24 51°13.635 2°55.935 121.2 3.6 297 -999
2003-03-19 07:30:30 51°13.638 2°55.926 121.5 3.8 297 -999
2003-03-19 07:30:34 51°13.641 2°55.92 121.6 4 297 -999
2003-03-19 07:30:40 51°13.644 2°55.91 121.7 4.2 298 -999
2003-03-19 07:30:45 51°13.647 2°55.902 121.8 4.3 298 -999
2003-03-19 07:30:50 51°13.65 2°55.893 121.8 4.4 298 -999
2003-03-19 07:30:54 51°13.653 2°55.886 121.6 4.5 298 -999
2003-03-19 07:31:00 51°13.657 2°55.875 121.3 4.6 298 -999
2003-03-19 07:31:04 51°13.659 2°55.868 121.2 4.6 298 -999
2003-03-19 07:31:10 51°13.663 2°55.858 121 4.5 298 -999
2003-03-19 07:31:14 51°13.664 2°55.85 120.7 4.5 298 -999
2003-03-19 07:31:20 51°13.667 2°55.839 120.4 4.4 298 -999
2003-03-19 07:31:24 51°13.669 2°55.832 119.9 4.4 297 -999
2003-03-19 07:31:30 51°13.672 2°55.821 119.3 4.4 297 -999
2003-03-19 07:31:34 51°13.674 2°55.814 118.6 4.4 297 -999
2003-03-19 07:31:40 51°13.677 2°55.804 117.6 4.3 296 -999
2003-03-19 07:31:44 51°13.679 2°55.797 116.8 4.2 295 7.7
2003-03-19 07:31:49 51°13.681 2°55.788 116.1 4.3 294 -999
2003-03-19 07:31:54 51°13.683 2°55.78 115.3 4.2 294 -999
2003-03-19 07:32:00 51°13.686 2°55.77 114.3 4.2 293 -999
2003-03-19 07:32:04 51°13.688 2°55.764 113.3 4 292 -999
2003-03-19 07:32:09 51°13.69 2°55.756 112.5 3.8 291 5.2
2003-03-19 07:32:14 51°13.692 2°55.749 111.7 3.7 291 5
2003-03-19 07:32:18 51°13.693 2°55.743 110.3 3.5 290 5
2003-03-19 07:32:24 51°13.694 2°55.737 108.8 3.1 289 8.6
2003-03-19 07:32:28 51°13.695 2°55.733 106.5 2.6 287 8
2003-03-19 07:32:34 51°13.696 2°55.727 104.3 2.3 286 8.2
2003-03-19 07:32:38 51°13.696 2°55.724 102.3 2.1 284 4.9
2003-03-19 07:32:44 51°13.697 2°55.72 100.7 1.8 283 9.1
2003-03-19 07:32:48 51°13.697 2°55.717 97.9 1.6 281 7
2003-03-19 07:32:54 51°13.697 2°55.715 95.6 1.3 279 9.1
2003-03-19 07:32:58 51°13.698 2°55.713 92.7 1 280 8.1
2003-03-19 07:33:02 51°13.698 2°55.712 89.7 0.7 283 9.1
2003-03-19 07:33:08 51°13.698 2°55.712 86.9 0.5 290 8.6
2003-03-19 07:33:14 51°13.699 2°55.711 84.2 0.3 304 6.9
2003-03-19 07:33:18 51°13.699 2°55.712 81.4 0.3 353 6.7
2003-03-19 07:33:22 51°13.7 2°55.712 76.7 0.4 35 6.4
2003-03-19 07:33:29 51°13.701 2°55.715 72.9 0.8 46 8.2
2003-03-19 07:33:34 51°13.702 2°55.717 67.5 1.1 52 9
2003-03-19 07:33:38 51°13.703 2°55.719 62.3 1.2 51 8.4
2003-03-19 07:33:44 51°13.705 2°55.72 58.6 1.2 47 9.2
2003-03-19 07:33:48 51°13.707 2°55.721 56 1.1 40 9.2
2003-03-19 07:33:54 51°13.707 2°55.723 53.4 0.8 35 9.2
2003-03-19 07:33:58 51°13.708 2°55.722 50.9 0.5 24 9.3
2003-03-19 07:34:02 51°13.709 2°55.722 48.6 0.3 349 9.2
2003-03-19 07:34:08 51°13.709 2°55.721 46.6 0.4 281 9.3
2003-03-19 07:34:13 51°13.708 2°55.719 45.2 0.6 255 9.3
2003-03-19 07:34:18 51°13.708 2°55.717 43.9 0.9 244 8.9
2003-03-19 07:34:23 51°13.707 2°55.715 42.5 1.1 236 7.7
2003-03-19 07:34:29 51°13.705 2°55.712 41 1.3 234 5.9
2003-03-19 07:34:34 51°13.704 2°55.71 39.3 1.3 233 -999
2003-03-19 07:34:38 51°13.703 2°55.709 37.7 1.2 233 -999
2003-03-19 07:34:44 51°13.702 2°55.707 35.9 1 233 4.8
2003-03-19 07:34:49 51°13.702 2°55.705 34.2 0.9 237 -999
2003-03-19 07:34:54 51°13.702 2°55.704 31.3 0.5 247 4.8
2003-03-19 07:34:58 51°13.702 2°55.704 27.6 0.4 277 4.9
2003-03-19 07:35:04 51°13.703 2°55.703 24.5 0.4 315 4.9
2003-03-19 07:35:09 51°13.704 2°55.703 20.2 0.5 340 7.7
2003-03-19 07:35:12 51°13.704 2°55.703 15.8 0.8 349 6.8
2003-03-19 07:35:18 51°13.706 2°55.702 10.9 1 350 5.5
2003-03-19 07:35:24 51°13.709 2°55.702 6 1.2 351 6.7
2003-03-19 07:35:28 51°13.71 2°55.701 1.5 1.4 348 7.2
2003-03-19 07:35:34 51°13.713 2°55.7 357.3 1.6 347 7.4
2003-03-19 07:35:38 51°13.715 2°55.699 354 1.8 344 5
2003-03-19 07:35:44 51°13.718 2°55.697 351 2 342 5.4
2003-03-19 07:35:48 51°13.721 2°55.695 349.4 2.3 340 9.3
2003-03-19 07:35:54 51°13.725 2°55.693 347.6 2.5 339 8.5
2003-03-19 07:35:58 51°13.728 2°55.691 346.2 2.7 338 9.2
2003-03-19 07:36:04 51°13.733 2°55.688 345.3 2.9 338 8.6
2003-03-19 07:36:08 51°13.736 2°55.686 344.7 3.2 338 9.3
2003-03-19 07:36:14 51°13.742 2°55.682 344.5 3.6 338 9
2003-03-19 07:36:18 51°13.747 2°55.679 344.2 4 339 8.6
2003-03-19 07:36:24 51°13.754 2°55.674 343.8 4.5 339 8.2
2003-03-19 07:36:29 51°13.76 2°55.67 343.5 4.9 340 7
2003-03-19 07:36:33 51°13.766 2°55.666 343.3 5.3 339 8.2
2003-03-19 07:36:39 51°13.775 2°55.66 343.1 5.6 339 8.3
2003-03-19 07:36:44 51°13.784 2°55.654 342.5 5.8 339 8.3
2003-03-19 07:36:48 51°13.792 2°55.649 342.1 6 338 8.4
2003-03-19 07:36:54 51°13.802 2°55.641 341.8 6.2 337 7.7
2003-03-19 07:36:59 51°13.81 2°55.635 341.7 6.4 336 7.9
2003-03-19 07:37:04 51°13.82 2°55.63 341.8 6.6 336 8.2
2003-03-19 07:37:08 51°13.827 2°55.625 342.4 6.8 336 7.7
2003-03-19 07:37:14 51°13.838 2°55.618 342.2 7 337 7.7
2003-03-19 07:37:18 51°13.846 2°55.613 341.9 7.2 337 7
2003-03-19 07:37:24 51°13.857 2°55.605 342.2 7.4 337 6.8
2003-03-19 07:37:28 51°13.864 2°55.6 342.4 7.6 337 7.8
2003-03-19 07:37:34 51°13.876 2°55.592 342.2 7.8 337 4.7
2003-03-19 07:37:38 51°13.885 2°55.586 341.8 7.9 337 7.8
2003-03-19 07:37:44 51°13.897 2°55.577 341.8 8 337 7.7
2003-03-19 07:37:48 51°13.905 2°55.572 342 8 337 7.5
2003-03-19 07:37:53 51°13.915 2°55.565 342.1 8.1 337 -999
2003-03-19 07:37:58 51°13.925 2°55.557 341.8 8.3 337 7.9
2003-03-19 07:38:02 51°13.932 2°55.551 341.7 8.3 337 4.9
2003-03-19 07:38:08 51°13.943 2°55.544 341.8 8.4 337 5.7
2003-03-19 07:38:13 51°13.952 2°55.538 341.8 8.4 337 6.2
2003-03-19 07:38:18 51°13.963 2°55.532 341.8 8.5 337 6.7
2003-03-19 07:38:22 51°13.971 2°55.527 341.6 8.5 338 7.3
2003-03-19 07:38:28 51°13.983 2°55.519 340.9 8.5 337 7.5
2003-03-19 07:38:33 51°13.993 2°55.511 340.2 8.5 336 7.9
2003-03-19 07:38:38 51°14.003 2°55.502 339.6 8.4 334 7.9
2003-03-19 07:38:42 51°14.011 2°55.496 339.5 8.4 334 7.8
2003-03-19 07:38:48 51°14.022 2°55.486 341 8.3 335 7.8
2003-03-19 07:38:54 51°14.035 2°55.479 342.6 8.2 337 5.3
2003-03-19 07:38:59 51°14.045 2°55.473 343 8.2 338 5.1
2003-03-19 07:39:03 51°14.054 2°55.468 342.3 8.2 338 5.1
2003-03-19 07:39:08 51°14.064 2°55.461 341.4 8.2 337 7.3
2003-03-19 07:39:14 51°14.076 2°55.452 341.2 8.1 336 7.3
2003-03-19 07:39:18 51°14.084 2°55.447 340.8 8.1 335 5
2003-03-19 07:39:24 51°14.097 2°55.437 339.9 8 335 4.9
2003-03-19 07:39:28 51°14.105 2°55.431 339.3 8.1 334 4.8
2003-03-19 07:39:33 51°14.115 2°55.423 339.3 8.1 334 4.7
2003-03-19 07:39:38 51°14.125 2°55.415 338.8 8.1 334 4.8
2003-03-19 07:39:42 51°14.133 2°55.409 337.7 8.1 333 7.8
2003-03-19 07:39:48 51°14.146 2°55.399 336.5 8.2 332 5.3
2003-03-19 07:39:53 51°14.156 2°55.389 335.2 8.2 330 4.7
2003-03-19 07:39:58 51°14.166 2°55.38 334.5 8.2 329 4.9
2003-03-19 07:40:04 51°14.178 2°55.369 334.1 8.2 329 4.8
2003-03-19 07:40:08 51°14.186 2°55.361 333.6 8.2 328 4.8
2003-03-19 07:40:14 51°14.199 2°55.346 332.2 8.3 327 8
2003-03-19 07:40:18 51°14.208 2°55.337 330.8 8.3 326 8
2003-03-19 07:40:22 51°14.215 2°55.329 329.3 8.3 325 7.9
2003-03-19 07:40:28 51°14.226 2°55.315 327.6 8.3 323 5
2003-03-19 07:40:33 51°14.236 2°55.302 325.8 8.3 322 5
2003-03-19 07:40:38 51°14.244 2°55.29 324.2 8.3 320 4.8
2003-03-19 07:40:42 51°14.25 2°55.281 322.7 8.4 318 8.1
2003-03-19 07:40:48 51°14.26 2°55.265 321.5 8.5 316 5.2
2003-03-19 07:40:54 51°14.27 2°55.249 320.6 8.4 315 8.2
2003-03-19 07:40:58 51°14.276 2°55.238 319.9 8.4 314 8.3
2003-03-19 07:41:02 51°14.283 2°55.228 319.1 8.4 314 7.9
2003-03-19 07:41:08 51°14.292 2°55.212 317.8 8.4 313 8.3
2003-03-19 07:41:14 51°14.301 2°55.195 316.1 8.4 313 7.8
2003-03-19 07:41:18 51°14.307 2°55.184 314.3 8.3 311 7.4
2003-03-19 07:41:24 51°14.315 2°55.166 312.6 8.2 310 7.7
2003-03-19 07:41:28 51°14.321 2°55.155 311.3 8.2 308 7.7
2003-03-19 07:41:33 51°14.328 2°55.14 310.4 8.2 307 4.8
2003-03-19 07:41:38 51°14.335 2°55.124 309.1 8.4 305 7.4
2003-03-19 07:41:44 51°14.343 2°55.105 308.6 8.6 304 7.9
2003-03-19 07:41:48 51°14.348 2°55.091 308.2 8.8 303 8.2
2003-03-19 07:41:54 51°14.355 2°55.07 307.1 9 303 8.4
2003-03-19 07:41:58 51°14.359 2°55.055 306 9.2 302 8.6
2003-03-19 07:42:04 51°14.365 2°55.032 303.6 9.5 300 8.1
2003-03-19 07:42:08 51°14.371 2°55.017 301.2 9.6 298 8.3
2003-03-19 07:42:13 51°14.377 2°54.998 298.7 9.8 295 7.3
2003-03-19 07:42:18 51°14.382 2°54.977 296.2 9.9 292 8.4
2003-03-19 07:42:23 51°14.386 2°54.956 293.3 10.1 288 8.5
2003-03-19 07:42:29 51°14.391 2°54.928 290.7 10.3 285 8.7
2003-03-19 07:42:34 51°14.394 2°54.905 288.7 10.6 283 8.6
2003-03-19 07:42:38 51°14.396 2°54.885 286.2 10.9 280 8.6
2003-03-19 07:42:44 51°14.397 2°54.856 282.4 11.1 277 8.6
2003-03-19 07:42:48 51°14.398 2°54.835 278.7 11.4 273 8.6
2003-03-19 07:42:54 51°14.397 2°54.804 275.5 11.6 270 8.4
2003-03-19 07:42:58 51°14.396 2°54.783 273.5 11.9 267 8.3
2003-03-19 07:43:04 51°14.393 2°54.751 271.9 12.1 265 8.6
2003-03-19 07:43:08 51°14.391 2°54.728 270.6 12.4 264 8.5
2003-03-19 07:43:13 51°14.389 2°54.7 270 12.6 263 8.6
2003-03-19 07:43:18 51°14.388 2°54.672 269.8 12.8 263 8.6
2003-03-19 07:43:22 51°14.386 2°54.649 268.9 12.9 263 8.5
2003-03-19 07:43:28 51°14.383 2°54.615 267.6 13.1 262 8.5
2003-03-19 07:43:34 51°14.379 2°54.58 266.2 13.2 260 8.2
2003-03-19 07:43:38 51°14.376 2°54.557 264.6 13.3 259 7.7
2003-03-19 07:43:42 51°14.372 2°54.534 263.1 13.4 257 -999
2003-03-19 07:43:48 51°14.367 2°54.5 261.9 13.4 256 7.5
2003-03-19 07:43:53 51°14.362 2°54.471 261.2 13.5 255 7.4
2003-03-19 07:43:58 51°14.357 2°54.442 260.6 13.5 255 7.3
2003-03-19 07:44:02 51°14.352 2°54.419 260 13.6 254 7.3
2003-03-19 07:44:08 51°14.346 2°54.384 260 13.6 254 7.2
2003-03-19 07:44:14 51°14.339 2°54.349 260.1 13.7 254 7.1
2003-03-19 07:44:18 51°14.336 2°54.326 261.6 13.8 255 7.1
2003-03-19 07:44:24 51°14.33 2°54.29 262.9 13.8 256 6.9
2003-03-19 07:44:28 51°14.327 2°54.266 263.9 13.8 257 7
2003-03-19 07:44:34 51°14.323 2°54.231 265.1 13.8 258 6.9
2003-03-19 07:44:38 51°14.32 2°54.208 265.1 13.8 258 6.9
2003-03-19 07:44:44 51°14.316 2°54.172 266.1 13.8 259 6.8
2003-03-19 07:44:49 51°14.313 2°54.141 266.3 13.8 259 6.9
2003-03-19 07:44:54 51°14.31 2°54.111 266.2 13.8 259 6.6
2003-03-19 07:44:58 51°14.307 2°54.087 265.6 13.8 258 6.8
2003-03-19 07:45:04 51°14.302 2°54.052 264.1 13.9 257 6.6
2003-03-19 07:45:09 51°14.296 2°54.022 262 13.9 255 6.9
2003-03-19 07:45:14 51°14.289 2°53.994 256.1 13.9 252 6.9
2003-03-19 07:45:18 51°14.281 2°53.972 251.1 14 246 6.7
2003-03-19 07:45:24 51°14.269 2°53.939 246 14.1 242 6.9
2003-03-19 07:45:28 51°14.261 2°53.917 244.8 14.2 240 7
2003-03-19 07:45:34 51°14.249 2°53.885 245.1 14.1 240 7
2003-03-19 07:45:38 51°14.242 2°53.863 244.8 14.1 240 7
2003-03-19 07:45:43 51°14.231 2°53.837 242.1 14 239 7
2003-03-19 07:45:48 51°14.22 2°53.811 240.5 14.1 238 7
2003-03-19 07:45:54 51°14.207 2°53.78 240.5 14.3 236 7
2003-03-19 07:45:58 51°14.199 2°53.759 241.7 14.2 237 7.1
2003-03-19 07:46:03 51°14.189 2°53.732 243.7 14.2 239 7.1
2003-03-19 07:46:09 51°14.178 2°53.698 245.1 14.3 240 7.1
2003-03-19 07:46:13 51°14.172 2°53.675 249.1 14.3 243 7.1
2003-03-19 07:46:18 51°14.165 2°53.646 254.3 14.2 247 7.1
2003-03-19 07:46:23 51°14.16 2°53.615 259.6 14.2 252 7.1
2003-03-19 07:46:28 51°14.156 2°53.585 263 14.2 256 7.2
2003-03-19 07:46:32 51°14.153 2°53.561 266.2 14.2 258 7.3
2003-03-19 07:46:38 51°14.15 2°53.523 268.4 14 261 7.3
2003-03-19 07:46:44 51°14.147 2°53.486 269.3 14 261 7.5
2003-03-19 07:46:48 51°14.144 2°53.462 268 14 260 7.5
2003-03-19 07:46:53 51°14.139 2°53.431 264.6 14.2 258 7.5
2003-03-19 07:46:58 51°14.134 2°53.4 262.6 14.4 255 7.5
2003-03-19 07:47:04 51°14.126 2°53.364 259.4 14.5 253 -999
2003-03-19 07:47:09 51°14.118 2°53.334 255.8 14.6 250 7.6
2003-03-19 07:47:14 51°14.108 2°53.306 250 14.6 247 7.6
2003-03-19 07:47:18 51°14.1 2°53.284 245.9 14.6 241 7.7
2003-03-19 07:47:24 51°14.087 2°53.251 243.8 14.6 239 7.7
2003-03-19 07:47:28 51°14.078 2°53.228 243.3 14.6 239 7.8
2003-03-19 07:47:33 51°14.068 2°53.2 244.2 14.6 239 7.8
2003-03-19 07:47:38 51°14.058 2°53.172 244.2 14.7 240 7.8
2003-03-19 07:47:44 51°14.045 2°53.139 244.2 14.7 240 7.9
2003-03-19 07:47:48 51°14.037 2°53.116 244.4 14.8 240 7.9
2003-03-19 07:47:54 51°14.024 2°53.082 243.8 14.9 239 8
2003-03-19 07:47:58 51°14.015 2°53.06 242.4 15 238 8
2003-03-19 07:48:02 51°14.006 2°53.037 242.1 15 238 8
2003-03-19 07:48:08 51°13.993 2°53.004 242 15 237 8
2003-03-19 07:48:14 51°13.979 2°52.971 241.9 15 237 8
2003-03-19 07:48:18 51°13.971 2°52.949 242.3 15 238 8.1
2003-03-19 07:48:24 51°13.957 2°52.914 243.1 15 238 8.1
2003-03-19 07:48:28 51°13.949 2°52.891 244.7 15.1 240 8.2
2003-03-19 07:48:32 51°13.941 2°52.868 246 15.1 241 8.2
2003-03-19 07:48:38 51°13.93 2°52.833 247.6 15.1 242 8.2
2003-03-19 07:48:42 51°13.922 2°52.808 249.5 15.1 244 8.2
2003-03-19 07:48:48 51°13.912 2°52.772 250.3 15.1 244 8.3
2003-03-19 07:48:54 51°13.901 2°52.735 250.3 15.1 245 8.3
2003-03-19 07:48:58 51°13.893 2°52.712 250.1 15.1 244 8.3
2003-03-19 07:49:03 51°13.884 2°52.682 248.9 15.1 243 8.3
2003-03-19 07:49:08 51°13.874 2°52.653 246.7 15.1 242 8.3
2003-03-19 07:49:13 51°13.862 2°52.625 244.3 15.2 240 8.3
2003-03-19 07:49:18 51°13.851 2°52.596 242.2 15.2 238 8.3
2003-03-19 07:49:23 51°13.839 2°52.569 241.4 15.2 237 8.4
2003-03-19 07:49:28 51°13.828 2°52.54 241.9 15.3 237 8.5
2003-03-19 07:49:34 51°13.815 2°52.506 242.3 15.2 238 8.4
2003-03-19 07:49:38 51°13.806 2°52.483 243.8 15.2 239 8.4
2003-03-19 07:49:44 51°13.794 2°52.448 245.6 15.1 240 8.5
2003-03-19 07:49:48 51°13.786 2°52.424 247.3 15.2 242 8.5
2003-03-19 07:49:54 51°13.775 2°52.387 249.4 15.2 243 8.5
2003-03-19 07:49:58 51°13.768 2°52.363 250.4 15.2 244 8.5
2003-03-19 07:50:04 51°13.757 2°52.326 250.1 15.2 244 8.5
2003-03-19 07:50:08 51°13.749 2°52.303 249.1 15.2 243 8.4
2003-03-19 07:50:14 51°13.737 2°52.268 248.2 15.2 242 8.4
2003-03-19 07:50:18 51°13.729 2°52.245 246.7 15.1 241 8.5
2003-03-19 07:50:23 51°13.718 2°52.217 245 15.2 240 8.6
2003-03-19 07:50:29 51°13.706 2°52.182 245.1 15.2 240 8.6
2003-03-19 07:50:34 51°13.696 2°52.153 245.3 15.2 240 8.5
2003-03-19 07:50:38 51°13.687 2°52.13 245.3 15.2 240 8.5
2003-03-19 07:50:44 51°13.675 2°52.095 245.6 15.2 241 8.6
2003-03-19 07:50:48 51°13.666 2°52.072 245.1 15.1 240 8.6
2003-03-19 07:50:54 51°13.654 2°52.037 244.5 15.1 240 8.6
2003-03-19 07:50:59 51°13.643 2°52.008 243.8 15.2 239 8.6
2003-03-19 07:51:04 51°13.632 2°51.98 243.5 15.1 239 8.6
2003-03-19 07:51:08 51°13.623 2°51.957 243.2 15.2 238 8.6
2003-03-19 07:51:13 51°13.612 2°51.928 243.3 15.2 238 8.6
2003-03-19 07:51:18 51°13.601 2°51.9 243 15.2 238 8.6
2003-03-19 07:51:23 51°13.59 2°51.871 243.9 15.1 239 8.6
2003-03-19 07:51:29 51°13.577 2°51.837 243.8 15.1 239 8.5
2003-03-19 07:51:34 51°13.567 2°51.808 245.1 15.1 240 8.6
2003-03-19 07:51:38 51°13.559 2°51.785 245.7 15 240 8.6
2003-03-19 07:51:44 51°13.546 2°51.75 245.7 15 241 8.6
2003-03-19 07:51:48 51°13.538 2°51.726 245.5 15.1 241 8.7
2003-03-19 07:51:54 51°13.526 2°51.692 245.2 15.1 240 8.6
2003-03-19 07:51:59 51°13.515 2°51.663 245.3 15.1 240 8.7
2003-03-19 07:52:04 51°13.505 2°51.635 244.9 15.1 240 8.7
2003-03-19 07:52:08 51°13.497 2°51.612 245.5 15.2 240 8.7
2003-03-19 07:52:14 51°13.485 2°51.577 245.7 15.1 240 8.8
2003-03-19 07:52:18 51°13.477 2°51.553 245.9 15.1 241 8.8
2003-03-19 07:52:23 51°13.466 2°51.524 245.9 15.1 241 8.8
2003-03-19 07:52:29 51°13.454 2°51.489 245.7 15.1 241 8.9
2003-03-19 07:52:34 51°13.444 2°51.46 245.9 15.1 241 8.9
2003-03-19 07:52:38 51°13.436 2°51.437 246 15.1 241 8.9
2003-03-19 07:52:44 51°13.424 2°51.402 246 15.1 241 8.8
2003-03-19 07:52:48 51°13.416 2°51.378 246.4 15.2 241 8.8
2003-03-19 07:52:54 51°13.403 2°51.343 245.8 15.2 241 8.9
2003-03-19 07:52:58 51°13.395 2°51.32 245.4 15.2 241 8.9
2003-03-19 07:53:04 51°13.383 2°51.285 245.2 15.1 240 8.9
2003-03-19 07:53:08 51°13.374 2°51.263 244.4 15.1 240 8.9
2003-03-19 07:53:13 51°13.364 2°51.235 244.4 15.1 240 8.9
2003-03-19 07:53:18 51°13.353 2°51.206 244.6 15.2 240 9
2003-03-19 07:53:23 51°13.343 2°51.177 244.3 15.1 240 9
2003-03-19 07:53:29 51°13.33 2°51.142 244.5 15.1 240 9
2003-03-19 07:53:34 51°13.321 2°51.113 245.3 15.1 240 9
2003-03-19 07:53:38 51°13.312 2°51.089 245.3 15 241 9
2003-03-19 07:53:44 51°13.3 2°51.054 245.4 15.1 241 9
2003-03-19 07:53:48 51°13.292 2°51.031 246.1 15.1 241 9
2003-03-19 07:53:54 51°13.28 2°50.996 246.1 15.1 241 9.1
2003-03-19 07:53:59 51°13.27 2°50.967 246.2 15.1 242 9.1
2003-03-19 07:54:04 51°13.26 2°50.938 246.1 15 242 9
2003-03-19 07:54:08 51°13.252 2°50.915 245.5 15 241 9
2003-03-19 07:54:13 51°13.242 2°50.885 245.3 15.1 241 9.1
2003-03-19 07:54:18 51°13.231 2°50.856 244.6 15.1 240 9.1
2003-03-19 07:54:23 51°13.221 2°50.827 244.8 15.2 240 9.1
2003-03-19 07:54:29 51°13.208 2°50.793 244.7 15.2 240 9.1
2003-03-19 07:54:34 51°13.198 2°50.763 245.2 15.1 240 9.1
2003-03-19 07:54:38 51°13.19 2°50.74 245.3 15.1 241 9.2
2003-03-19 07:54:44 51°13.178 2°50.705 245.5 15.1 241 9.1
2003-03-19 07:54:48 51°13.17 2°50.682 245.3 15.2 241 9.1
2003-03-19 07:54:54 51°13.157 2°50.646 245.6 15.2 241 9.2
2003-03-19 07:54:58 51°13.149 2°50.623 245.4 15.2 241 9.2
2003-03-19 07:55:04 51°13.137 2°50.588 245.2 15.1 241 9.2
2003-03-19 07:55:08 51°13.128 2°50.565 245.1 15.1 241 9.2
2003-03-19 07:55:14 51°13.116 2°50.53 245.3 15.1 241 9.2
2003-03-19 07:55:18 51°13.108 2°50.507 245.2 15.1 241 9.2
2003-03-19 07:55:24 51°13.096 2°50.471 245.2 15.2 241 9.2
2003-03-19 07:55:28 51°13.087 2°50.448 245.1 15.2 241 9.2
2003-03-19 07:55:34 51°13.075 2°50.413 245 15.2 240 9.3
2003-03-19 07:55:38 51°13.066 2°50.389 244.7 15.3 240 9.2
2003-03-19 07:55:42 51°13.058 2°50.366 245.3 15.3 240 9.3
2003-03-19 07:55:48 51°13.045 2°50.331 245.1 15.2 240 9.3
2003-03-19 07:55:54 51°13.033 2°50.296 245.2 15.2 240 9.3
2003-03-19 07:55:59 51°13.023 2°50.267 245.3 15.2 241 9.3
2003-03-19 07:56:04 51°13.013 2°50.238 245.2 15.2 240 9.3
2003-03-19 07:56:08 51°13.005 2°50.214 245.3 15.2 241 9.3
2003-03-19 07:56:14 51°12.992 2°50.179 244.7 15.2 240 9.3
2003-03-19 07:56:18 51°12.984 2°50.155 245.1 15.3 241 9.4
2003-03-19 07:56:22 51°12.975 2°50.132 244.8 15.3 240 9.4
2003-03-19 07:56:28 51°12.963 2°50.098 244.6 15.3 240 9.4
2003-03-19 07:56:34 51°12.95 2°50.063 244.7 15.3 240 9.4
2003-03-19 07:56:38 51°12.941 2°50.039 244.6 15.3 240 9.4
2003-03-19 07:56:42 51°12.933 2°50.015 245.1 15.3 240 9.4
2003-03-19 07:56:48 51°12.92 2°49.98 245.1 15.3 240 9.4
2003-03-19 07:56:54 51°12.908 2°49.944 245.1 15.3 241 9.5
2003-03-19 07:56:58 51°12.899 2°49.92 245.2 15.4 241 9.4
2003-03-19 07:57:04 51°12.887 2°49.884 245.2 15.4 241 9.5
2003-03-19 07:57:08 51°12.879 2°49.86 245.3 15.4 241 9.5
2003-03-19 07:57:14 51°12.866 2°49.825 245.2 15.4 241 9.5
2003-03-19 07:57:18 51°12.858 2°49.801 245.2 15.4 241 9.5
2003-03-19 07:57:24 51°12.845 2°49.765 245.3 15.5 241 9.5
2003-03-19 07:57:28 51°12.837 2°49.742 245.1 15.5 241 9.6
2003-03-19 07:57:34 51°12.825 2°49.706 245.1 15.5 241 9.6
2003-03-19 07:57:38 51°12.816 2°49.682 245.1 15.5 241 9.6
2003-03-19 07:57:44 51°12.804 2°49.647 245.3 15.5 241 9.6
2003-03-19 07:57:48 51°12.796 2°49.623 245.5 15.5 241 9.6
2003-03-19 07:57:54 51°12.783 2°49.587 245.2 15.4 241 9.6
2003-03-19 07:57:58 51°12.775 2°49.563 245.6 15.5 241 9.6
2003-03-19 07:58:02 51°12.767 2°49.539 245.8 15.5 241 9.6
2003-03-19 07:58:08 51°12.755 2°49.503 245.7 15.5 241 9.6
2003-03-19 07:58:13 51°12.744 2°49.473 245.7 15.6 241 9.7
2003-03-19 07:58:18 51°12.733 2°49.443 245.5 15.7 241 9.7
2003-03-19 07:58:24 51°12.721 2°49.407 245.3 15.6 241 9.7
2003-03-19 07:58:29 51°12.711 2°49.377 245.4 15.5 241 9.7
2003-03-19 07:58:34 51°12.7 2°49.347 245.3 15.5 241 9.7
2003-03-19 07:58:38 51°12.691 2°49.323 245.1 15.5 241 9.7
2003-03-19 07:58:44 51°12.679 2°49.288 245.1 15.5 241 9.7
2003-03-19 07:58:48 51°12.67 2°49.264 245 15.5 240 9.7
2003-03-19 07:58:54 51°12.658 2°49.228 244.8 15.5 240 9.7
2003-03-19 07:58:58 51°12.649 2°49.205 245.2 15.5 240 9.8
2003-03-19 07:59:02 51°12.641 2°49.181 245.3 15.5 241 9.8
2003-03-19 07:59:08 51°12.629 2°49.145 245.8 15.5 241 9.8
2003-03-19 07:59:13 51°12.618 2°49.115 245.6 15.5 241 9.8
2003-03-19 07:59:18 51°12.608 2°49.086 245.3 15.5 241 9.9
2003-03-19 07:59:24 51°12.596 2°49.05 245.9 15.5 241 9.9
2003-03-19 07:59:28 51°12.587 2°49.026 245.2 15.4 241 9.9
2003-03-19 07:59:34 51°12.575 2°48.99 245.8 15.4 241 9.9
2003-03-19 07:59:38 51°12.567 2°48.967 245.2 15.4 241 9.9
2003-03-19 07:59:44 51°12.555 2°48.93 245.7 15.4 241 9.9
2003-03-19 07:59:48 51°12.546 2°48.907 245.3 15.4 241 9.9
2003-03-19 07:59:54 51°12.534 2°48.871 245.6 15.5 241 9.9
2003-03-19 07:59:58 51°12.525 2°48.847 245.5 15.5 241 9.9
2003-03-19 08:00:02 51°12.517 2°48.823 245.8 15.4 241 9.9
2003-03-19 08:00:08 51°12.505 2°48.787 245.7 15.3 241 9.9
2003-03-19 08:00:13 51°12.495 2°48.758 245.6 15.3 241 10
2003-03-19 08:00:18 51°12.485 2°48.728 245.8 15.4 241 10
2003-03-19 08:00:24 51°12.472 2°48.692 245.3 15.4 241 10
2003-03-19 08:00:28 51°12.464 2°48.669 245.5 15.3 241 10
2003-03-19 08:00:34 51°12.452 2°48.633 245.3 15.3 241 10
2003-03-19 08:00:38 51°12.443 2°48.609 245 15.2 241 10
2003-03-19 08:00:44 51°12.431 2°48.574 244.8 15.2 241 10
2003-03-19 08:00:48 51°12.422 2°48.551 244.4 15.3 240 10
2003-03-19 08:00:54 51°12.41 2°48.516 244.4 15.3 240 10.1
2003-03-19 08:00:58 51°12.401 2°48.492 244.4 15.3 240 10
2003-03-19 08:01:03 51°12.391 2°48.463 244.5 15.3 240 10.1
2003-03-19 08:01:08 51°12.38 2°48.434 244.6 15.3 240 10.1
2003-03-19 08:01:13 51°12.37 2°48.404 244.9 15.3 241 10.1
2003-03-19 08:01:18 51°12.36 2°48.375 244.6 15.3 241 10.1
2003-03-19 08:01:24 51°12.347 2°48.34 244.6 15.3 240 10.1
2003-03-19 08:01:28 51°12.339 2°48.315 245.1 15.3 241 10.1
2003-03-19 08:01:34 51°12.326 2°48.28 244.9 15.3 240 10.1
2003-03-19 08:01:38 51°12.318 2°48.257 244.5 15.3 240 10.1
2003-03-19 08:01:43 51°12.307 2°48.228 244.9 15.3 240 10.2
2003-03-19 08:01:49 51°12.295 2°48.193 245.1 15.4 241 10.2
2003-03-19 08:01:54 51°12.285 2°48.163 245.2 15.4 241 10.1
2003-03-19 08:01:58 51°12.276 2°48.14 245.2 15.5 241 10.2
2003-03-19 08:02:04 51°12.264 2°48.104 245.3 15.5 241 10.2
2003-03-19 08:02:09 51°12.253 2°48.075 245.1 15.4 241 10.2
2003-03-19 08:02:14 51°12.243 2°48.045 245.5 15.4 241 10.2
2003-03-19 08:02:18 51°12.234 2°48.021 245.3 15.4 241 10.3
2003-03-19 08:02:23 51°12.224 2°47.992 245.2 15.4 241 10.3
2003-03-19 08:02:28 51°12.214 2°47.962 245.4 15.5 241 10.2
2003-03-19 08:02:34 51°12.202 2°47.926 245.5 15.5 241 10.2
2003-03-19 08:02:38 51°12.194 2°47.902 245.7 15.5 241 10.3
2003-03-19 08:02:42 51°12.186 2°47.878 245.7 15.5 241 10.2
2003-03-19 08:02:48 51°12.173 2°47.842 245.7 15.5 241 10.3
2003-03-19 08:02:54 51°12.161 2°47.806 245.5 15.5 241 10.2
2003-03-19 08:02:58 51°12.152 2°47.782 245.2 15.5 241 10.2
2003-03-19 08:03:04 51°12.14 2°47.746 245.2 15.5 241 10.2
2003-03-19 08:03:09 51°12.129 2°47.716 245.3 15.5 241 10.2
2003-03-19 08:03:14 51°12.119 2°47.686 245.5 15.5 241 10.2
2003-03-19 08:03:18 51°12.111 2°47.662 245.3 15.6 241 10.2
2003-03-19 08:03:22 51°12.102 2°47.638 245.6 15.5 241 10.3
2003-03-19 08:03:28 51°12.09 2°47.602 245.3 15.5 241 10.2
2003-03-19 08:03:34 51°12.078 2°47.566 245.6 15.5 241 10.3
2003-03-19 08:03:38 51°12.069 2°47.542 245.2 15.5 241 10.1
2003-03-19 08:03:44 51°12.057 2°47.506 245.3 15.5 241 10.2
2003-03-19 08:03:49 51°12.046 2°47.476 245.2 15.6 241 10.2
2003-03-19 08:03:54 51°12.036 2°47.446 245 15.5 241 10.3
2003-03-19 08:03:58 51°12.027 2°47.422 245.2 15.5 241 10.3
2003-03-19 08:04:03 51°12.017 2°47.392 245.4 15.5 241 10.2
2003-03-19 08:04:09 51°12.005 2°47.356 245.7 15.6 241 10.3
2003-03-19 08:04:14 51°11.994 2°47.325 245.9 15.6 242 10.3
2003-03-19 08:04:18 51°11.986 2°47.301 245.8 15.6 242 10.2
2003-03-19 08:04:24 51°11.974 2°47.265 245.8 15.6 242 10.2
2003-03-19 08:04:29 51°11.963 2°47.235 245.8 15.6 242 10.2
2003-03-19 08:04:34 51°11.953 2°47.205 245.4 15.5 241 10.1
2003-03-19 08:04:38 51°11.945 2°47.181 245.4 15.6 241 10.3
2003-03-19 08:04:44 51°11.932 2°47.145 245.2 15.5 241 10.1
2003-03-19 08:04:49 51°11.922 2°47.115 245.3 15.5 241 10.1
2003-03-19 08:04:54 51°11.911 2°47.085 245.1 15.5 241 10.1
2003-03-19 08:04:58 51°11.903 2°47.061 245.3 15.5 241 10.1
2003-03-19 08:05:02 51°11.895 2°47.037 245.2 15.5 241 10.1
2003-03-19 08:05:08 51°11.882 2°47.001 245.2 15.4 241 10.1
2003-03-19 08:05:14 51°11.87 2°46.965 245.4 15.5 241 10.1
2003-03-19 08:05:18 51°11.862 2°46.941 246.7 15.6 242 10.1
2003-03-19 08:05:23 51°11.852 2°46.911 246.9 15.6 243 10.2
2003-03-19 08:05:29 51°11.841 2°46.874 247.4 15.5 243 10.2
2003-03-19 08:05:33 51°11.833 2°46.85 247.4 15.5 243 10.2
2003-03-19 08:05:38 51°11.823 2°46.819 247.5 15.5 243 10.1
2003-03-19 08:05:44 51°11.812 2°46.782 247.8 15.5 243 10.1
2003-03-19 08:05:48 51°11.804 2°46.758 247.5 15.5 243 10.2
2003-03-19 08:05:54 51°11.792 2°46.722 247.2 15.5 243 10.1
2003-03-19 08:05:58 51°11.784 2°46.697 247.3 15.5 243 10.2
2003-03-19 08:06:02 51°11.777 2°46.673 247.5 15.5 243 10.1
2003-03-19 08:06:08 51°11.765 2°46.636 247.2 15.5 243 10.2
2003-03-19 08:06:14 51°11.753 2°46.6 247.5 15.5 243 10.2
2003-03-19 08:06:18 51°11.745 2°46.575 247.9 15.5 243 10.2
2003-03-19 08:06:24 51°11.734 2°46.539 247.7 15.5 243 10.2
2003-03-19 08:06:29 51°11.724 2°46.508 247.7 15.5 244 10.2
2003-03-19 08:06:33 51°11.717 2°46.484 247.7 15.5 243 10.2
2003-03-19 08:06:38 51°11.707 2°46.453 247.8 15.5 244 10.2
2003-03-19 08:06:44 51°11.696 2°46.417 247.3 15.5 243 10.2
2003-03-19 08:06:48 51°11.688 2°46.392 247.3 15.5 243 10.1
2003-03-19 08:06:53 51°11.678 2°46.362 247.5 15.4 243 10.1
2003-03-19 08:06:58 51°11.668 2°46.332 247.5 15.5 243 10.1
2003-03-19 08:07:02 51°11.661 2°46.307 247.3 15.5 243 10.1
2003-03-19 08:07:09 51°11.647 2°46.264 247.5 15.5 243 10.1
2003-03-19 08:07:13 51°11.639 2°46.24 247.4 15.5 243 10.1
2003-03-19 08:07:18 51°11.629 2°46.209 247.8 15.5 243 10.1
2003-03-19 08:07:24 51°11.618 2°46.173 248 15.5 244 10.1
2003-03-19 08:07:29 51°11.608 2°46.143 247.5 15.4 243 10.1
2003-03-19 08:07:34 51°11.598 2°46.112 247.4 15.4 243 10.1
2003-03-19 08:07:38 51°11.59 2°46.088 247.3 15.4 243 10
2003-03-19 08:07:42 51°11.583 2°46.063 247.6 15.5 243 10
2003-03-19 08:07:48 51°11.571 2°46.027 247.6 15.5 243 9.9
2003-03-19 08:07:54 51°11.56 2°45.99 247.3 15.4 243 9.9
2003-03-19 08:07:58 51°11.552 2°45.966 247.3 15.4 243 10
2003-03-19 08:08:04 51°11.541 2°45.93 247.5 15.4 243 9.9
2003-03-19 08:08:09 51°11.531 2°45.899 247 15.4 243 9.9
2003-03-19 08:08:14 51°11.521 2°45.869 247.3 15.4 243 9.8
2003-03-19 08:08:18 51°11.514 2°45.845 247.4 15.3 243 9.9
2003-03-19 08:08:22 51°11.506 2°45.821 246.8 15.3 243 9.8
2003-03-19 08:08:29 51°11.492 2°45.778 246.7 15.4 243 9.8
2003-03-19 08:08:34 51°11.483 2°45.748 247.4 15.4 243 9.8
2003-03-19 08:08:38 51°11.475 2°45.724 247 15.4 243 9.8
2003-03-19 08:08:43 51°11.466 2°45.693 247.6 15.4 243 9.8
2003-03-19 08:08:49 51°11.454 2°45.657 247.6 15.4 244 9.8
2003-03-19 08:08:54 51°11.444 2°45.627 247.3 15.4 243 9.8
2003-03-19 08:08:58 51°11.437 2°45.602 247.7 15.3 244 9.7
2003-03-19 08:09:04 51°11.425 2°45.566 247.4 15.3 243 9.7
2003-03-19 08:09:09 51°11.416 2°45.536 247.4 15.3 243 9.7
2003-03-19 08:09:14 51°11.406 2°45.505 247.5 15.4 243 9.7
2003-03-19 08:09:18 51°11.399 2°45.48 247.8 15.4 244 9.7
2003-03-19 08:09:22 51°11.391 2°45.456 247.7 15.4 244 9.7
2003-03-19 08:09:28 51°11.38 2°45.42 247.5 15.3 243 9.7
2003-03-19 08:09:33 51°11.37 2°45.39 247.2 15.3 243 9.6
2003-03-19 08:09:38 51°11.361 2°45.36 247 15.3 243 9.5
2003-03-19 08:09:44 51°11.349 2°45.323 247.1 15.3 243 9.6
2003-03-19 08:09:48 51°11.342 2°45.299 247.2 15.3 243 9.5
2003-03-19 08:09:53 51°11.332 2°45.269 247.6 15.2 244 9.5
2003-03-19 08:09:58 51°11.322 2°45.239 247.6 15.2 244 9.4
2003-03-19 08:10:02 51°11.315 2°45.215 247.6 15.3 244 9.5
2003-03-19 08:10:08 51°11.304 2°45.179 247.6 15.2 244 9.4
2003-03-19 08:10:13 51°11.294 2°45.148 247.5 15.2 244 9.4
2003-03-19 08:10:19 51°11.283 2°45.113 247.4 15.2 244 9.4
2003-03-19 08:10:24 51°11.274 2°45.082 247.4 15.2 243 9.4
2003-03-19 08:10:29 51°11.264 2°45.053 247.5 15.2 243 9.4
2003-03-19 08:10:34 51°11.254 2°45.022 247.1 15.2 243 9.4
2003-03-19 08:10:38 51°11.247 2°44.999 247.4 15.2 243 9.4
2003-03-19 08:10:44 51°11.235 2°44.962 247.4 15.2 243 9.3
2003-03-19 08:10:49 51°11.226 2°44.932 247.5 15.2 244 9.3
2003-03-19 08:10:54 51°11.217 2°44.902 247.6 15.2 244 9.2
2003-03-19 08:10:58 51°11.209 2°44.878 247.9 15.2 244 9.3
2003-03-19 08:11:04 51°11.198 2°44.843 247.5 15.2 243 9.2
2003-03-19 08:11:08 51°11.19 2°44.819 247.3 15.2 243 9.2
2003-03-19 08:11:14 51°11.179 2°44.783 247.1 15.2 243 9.2
2003-03-19 08:11:19 51°11.169 2°44.753 247.2 15.2 243 9.2
2003-03-19 08:11:24 51°11.16 2°44.723 247.3 15.2 243 9.2
2003-03-19 08:11:29 51°11.151 2°44.693 247.7 15.1 244 9.2
2003-03-19 08:11:34 51°11.142 2°44.663 247.5 15.1 244 9.1
2003-03-19 08:11:38 51°11.134 2°44.639 247.9 15.1 244 9.1
2003-03-19 08:11:44 51°11.123 2°44.604 247.8 15.1 244 9.1
2003-03-19 08:11:49 51°11.113 2°44.574 247.6 15.1 244 9.1
2003-03-19 08:11:54 51°11.104 2°44.544 247.6 15.1 244 9
2003-03-19 08:11:58 51°11.096 2°44.52 247.6 15.1 244 9
2003-03-19 08:12:04 51°11.085 2°44.484 247.8 15.1 243 9
2003-03-19 08:12:08 51°11.078 2°44.46 247.7 15.1 244 9
2003-03-19 08:12:14 51°11.067 2°44.425 247.8 15.1 243 9
2003-03-19 08:12:19 51°11.058 2°44.395 247.8 15.1 244 8.9
2003-03-19 08:12:24 51°11.048 2°44.365 247.4 15.1 243 8.9
2003-03-19 08:12:29 51°11.039 2°44.336 247.2 15.1 243 8.9
2003-03-19 08:12:34 51°11.03 2°44.306 246.9 15 243 8.9
2003-03-19 08:12:38 51°11.022 2°44.283 246.8 15 243 8.8
2003-03-19 08:12:44 51°11.01 2°44.247 246.9 15 243 8.8
2003-03-19 08:12:49 51°11.001 2°44.218 247.1 15 243 8.5
2003-03-19 08:12:54 51°10.992 2°44.188 247.3 15 243 8.7
2003-03-19 08:12:58 51°10.984 2°44.165 247.5 15 243 8.7
2003-03-19 08:13:04 51°10.973 2°44.129 248.2 15 244 8.7
2003-03-19 08:13:09 51°10.964 2°44.099 247.9 14.9 244 8.7
2003-03-19 08:13:14 51°10.955 2°44.07 248.2 14.9 244 8.7
2003-03-19 08:13:18 51°10.947 2°44.046 247.8 14.9 244 8.7
2003-03-19 08:13:24 51°10.936 2°44.01 247.9 14.9 244 8.6
2003-03-19 08:13:29 51°10.927 2°43.981 248.2 14.9 244 8.6
2003-03-19 08:13:34 51°10.919 2°43.952 248 14.9 244 8.6
2003-03-19 08:13:38 51°10.911 2°43.928 247.9 14.9 244 8.5
2003-03-19 08:13:44 51°10.9 2°43.893 248 14.9 244 8.5
2003-03-19 08:13:49 51°10.891 2°43.863 248.2 14.9 244 8.5
2003-03-19 08:13:54 51°10.882 2°43.834 248 14.9 244 8.5
2003-03-19 08:13:58 51°10.875 2°43.81 247.7 14.8 244 8.5
2003-03-19 08:14:04 51°10.864 2°43.776 247.2 14.8 243 8.5
2003-03-19 08:14:08 51°10.856 2°43.752 247 14.8 243 8.5
2003-03-19 08:14:14 51°10.845 2°43.718 246.5 14.8 242 8.4
2003-03-19 08:14:18 51°10.837 2°43.694 245.9 14.8 242 8.4
2003-03-19 08:14:24 51°10.825 2°43.66 245.9 14.8 242 8.3
2003-03-19 08:14:29 51°10.816 2°43.631 246.1 14.8 242 8.4
2003-03-19 08:14:34 51°10.806 2°43.602 246.5 14.8 242 8.3
2003-03-19 08:14:38 51°10.798 2°43.579 247 14.7 243 8.3
2003-03-19 08:14:44 51°10.788 2°43.543 248.2 14.7 244 8.3
2003-03-19 08:14:49 51°10.779 2°43.514 248.4 14.7 244 8.3
2003-03-19 08:14:54 51°10.77 2°43.485 249.4 14.7 245 8.2
2003-03-19 08:14:58 51°10.763 2°43.461 249.4 14.7 245 8.3
2003-03-19 08:15:04 51°10.754 2°43.426 249.8 14.7 245 8.2
2003-03-19 08:15:08 51°10.747 2°43.403 249.6 14.7 245 8.2
2003-03-19 08:15:14 51°10.737 2°43.368 249.5 14.7 245 8.2
2003-03-19 08:15:18 51°10.73 2°43.344 248.9 14.7 245 8.1
2003-03-19 08:15:24 51°10.719 2°43.31 247.7 14.7 244 8.1
2003-03-19 08:15:29 51°10.71 2°43.281 247.6 14.6 243 8.1
2003-03-19 08:15:34 51°10.7 2°43.252 247.5 14.6 243 8.1
2003-03-19 08:15:39 51°10.691 2°43.223 247.5 14.7 244 8
2003-03-19 08:15:44 51°10.682 2°43.194 247.5 14.7 244 8
2003-03-19 08:15:49 51°10.674 2°43.165 248.3 14.7 245 8
2003-03-19 08:15:54 51°10.666 2°43.136 249 14.6 245 8
2003-03-19 08:15:58 51°10.66 2°43.112 252.8 14.5 250 8
2003-03-19 08:16:04 51°10.656 2°43.074 260.7 14.4 256 7.9
2003-03-19 08:16:09 51°10.656 2°43.042 269.9 14.3 264 8
2003-03-19 08:16:14 51°10.657 2°43.011 277.4 14.3 270 8.1
2003-03-19 08:16:18 51°10.658 2°42.986 281.3 14.2 274 8.3
2003-03-19 08:16:24 51°10.661 2°42.949 282.5 14.1 275 8.4
2003-03-19 08:16:29 51°10.662 2°42.918 282.1 14 275 8.5
2003-03-19 08:16:34 51°10.663 2°42.886 280.4 14.2 273 8.6
2003-03-19 08:16:38 51°10.663 2°42.861 278.5 14.4 271 8.6
2003-03-19 08:16:44 51°10.663 2°42.822 276.6 14.6 270 8.7
2003-03-19 08:16:49 51°10.663 2°42.789 276.2 14.6 269 8.8
2003-03-19 08:16:54 51°10.662 2°42.757 275.8 14.7 269 8.9
2003-03-19 08:16:58 51°10.661 2°42.731 274.3 14.7 267 8.9
2003-03-19 08:17:04 51°10.659 2°42.692 271.9 14.7 265 8.9
2003-03-19 08:17:09 51°10.656 2°42.66 269 14.8 262 9
2003-03-19 08:17:14 51°10.653 2°42.628 267 14.8 261 9
2003-03-19 08:17:18 51°10.65 2°42.602 265.6 14.9 259 9
2003-03-19 08:17:24 51°10.644 2°42.563 263.5 14.9 258 9
2003-03-19 08:17:29 51°10.639 2°42.532 260.3 14.9 255 9
2003-03-19 08:17:34 51°10.631 2°42.501 256.4 14.9 251 9
2003-03-19 08:17:38 51°10.625 2°42.476 253.4 15 248 9
2003-03-19 08:17:44 51°10.614 2°42.441 251.1 15 246 9
2003-03-19 08:17:49 51°10.604 2°42.412 247 14.9 243 9
2003-03-19 08:17:54 51°10.593 2°42.385 242.2 14.9 239 8.9
2003-03-19 08:17:58 51°10.583 2°42.363 238.3 14.9 236 8.9
2003-03-19 08:18:04 51°10.568 2°42.332 236.7 14.8 234 8.9
2003-03-19 08:18:09 51°10.555 2°42.307 235.1 14.8 231 8.8
2003-03-19 08:18:14 51°10.541 2°42.282 232 14.8 230 8.7
2003-03-19 08:18:18 51°10.53 2°42.264 229 14.8 227 8.6
2003-03-19 08:18:24 51°10.512 2°42.236 227.5 14.8 226 8.6
2003-03-19 08:18:29 51°10.498 2°42.213 227.1 14.7 225 8.5
2003-03-19 08:18:34 51°10.485 2°42.188 228.6 14.7 227 8.4
2003-03-19 08:18:38 51°10.474 2°42.168 231.9 14.7 230 8.4
2003-03-19 08:18:44 51°10.46 2°42.137 234.5 14.6 233 8.3
2003-03-19 08:18:49 51°10.448 2°42.11 236.9 14.6 235 8.3
2003-03-19 08:18:54 51°10.437 2°42.083 239.6 14.6 237 8.2
2003-03-19 08:18:58 51°10.429 2°42.06 242.4 14.6 240 8.2
2003-03-19 08:19:04 51°10.418 2°42.027 244.9 14.5 241 8.2
2003-03-19 08:19:09 51°10.409 2°41.999 245.8 14.4 242 8.2
2003-03-19 08:19:14 51°10.4 2°41.97 246.3 14.4 243 8.1
2003-03-19 08:19:19 51°10.39 2°41.942 246.1 14.5 242 8.2
2003-03-19 08:19:24 51°10.38 2°41.914 245.9 14.5 242 8.1
2003-03-19 08:19:29 51°10.371 2°41.886 245.3 14.5 241 7.9
2003-03-19 08:19:34 51°10.36 2°41.859 243.6 14.5 240 8.1
2003-03-19 08:19:39 51°10.351 2°41.831 243.8 14.5 240 8
2003-03-19 08:19:44 51°10.34 2°41.804 243 14.5 239 8.1
2003-03-19 08:19:49 51°10.33 2°41.776 242.6 14.5 239 8
2003-03-19 08:19:54 51°10.319 2°41.749 241.9 14.5 238 8
2003-03-19 08:19:58 51°10.311 2°41.727 241.5 14.5 238 8
2003-03-19 08:20:04 51°10.298 2°41.695 241.1 14.5 238 8
2003-03-19 08:20:08 51°10.29 2°41.673 241 14.5 238 8
2003-03-19 08:20:14 51°10.277 2°41.641 240.7 14.5 238 7.9
2003-03-19 08:20:18 51°10.268 2°41.619 241.1 14.5 238 7.9
2003-03-19 08:20:24 51°10.255 2°41.587 241.5 14.5 239 7.9
2003-03-19 08:20:29 51°10.245 2°41.559 242.8 14.5 240 7.9
2003-03-19 08:20:34 51°10.235 2°41.531 243.6 14.5 240 7.8
2003-03-19 08:20:38 51°10.228 2°41.509 244.5 14.4 241 7.9
2003-03-19 08:20:44 51°10.217 2°41.475 245.3 14.4 242 5.7
2003-03-19 08:20:49 51°10.208 2°41.447 246 14.4 243 7.8
2003-03-19 08:20:54 51°10.199 2°41.418 246.5 14.4 243 7.8
2003-03-19 08:20:58 51°10.192 2°41.396 247.2 14.4 244 7.8
2003-03-19 08:21:04 51°10.18 2°41.362 247.1 14.4 243 7.8
2003-03-19 08:21:09 51°10.172 2°41.333 246.8 14.4 243 7.8
2003-03-19 08:21:14 51°10.162 2°41.305 246.5 14.4 242 7.8
2003-03-19 08:21:19 51°10.152 2°41.278 246 14.4 242 7.8
2003-03-19 08:21:24 51°10.143 2°41.25 245.5 14.3 241 7.8
2003-03-19 08:21:29 51°10.133 2°41.223 245 14.3 241 7.8
2003-03-19 08:21:34 51°10.123 2°41.194 244.8 14.4 241 7.8
2003-03-19 08:21:38 51°10.115 2°41.172 243.9 14.4 240 7.8
2003-03-19 08:21:44 51°10.103 2°41.139 243.2 14.4 240 5.8
2003-03-19 08:21:48 51°10.094 2°41.118 241.4 14.4 238 7.8
2003-03-19 08:21:54 51°10.082 2°41.086 240.9 14.3 238 7.7
2003-03-19 08:21:58 51°10.073 2°41.065 239.9 14.4 237 7.8
2003-03-19 08:22:04 51°10.06 2°41.033 240.2 14.4 237 7.8
2003-03-19 08:22:09 51°10.049 2°41.007 239.5 14.4 237 7.7
2003-03-19 08:22:14 51°10.039 2°40.98 240.2 14.3 237 7.7
2003-03-19 08:22:18 51°10.031 2°40.958 241.1 14.3 238 7.7
2003-03-19 08:22:24 51°10.018 2°40.926 241.9 14.4 239 7.7
2003-03-19 08:22:29 51°10.009 2°40.898 243.1 14.3 240 5.6
2003-03-19 08:22:34 51°9.998 2°40.871 242.5 14.3 239 7.7
2003-03-19 08:22:38 51°9.991 2°40.848 243.9 14.4 240 7.7
2003-03-19 08:22:44 51°9.979 2°40.815 244 14.4 241 7.7
2003-03-19 08:22:49 51°9.97 2°40.787 245.3 14.4 242 7.7
2003-03-19 08:22:54 51°9.961 2°40.759 246.1 14.4 243 7.7
2003-03-19 08:22:58 51°9.954 2°40.737 247.1 14.3 243 7.7
2003-03-19 08:23:04 51°9.944 2°40.703 248.1 14.3 244 7.7
2003-03-19 08:23:08 51°9.937 2°40.68 249 14.3 245 7.7
2003-03-19 08:23:14 51°9.927 2°40.645 249.4 14.4 245 7.7
2003-03-19 08:23:18 51°9.921 2°40.622 249.5 14.4 245 7.7
2003-03-19 08:23:24 51°9.911 2°40.587 250 14.4 246 7.7
2003-03-19 08:23:28 51°9.904 2°40.564 249.9 14.4 246 5.8
2003-03-19 08:23:34 51°9.895 2°40.529 249.7 14.4 246 7.8
2003-03-19 08:23:38 51°9.888 2°40.506 249.5 14.4 245 7.7
2003-03-19 08:23:44 51°9.878 2°40.472 248.9 14.4 245 7.7
2003-03-19 08:23:48 51°9.872 2°40.449 248.5 14.3 245 7.7
2003-03-19 08:23:54 51°9.861 2°40.414 247.6 14.4 244 5.7
2003-03-19 08:23:58 51°9.854 2°40.392 246 14.4 243 7.7
2003-03-19 08:24:04 51°9.843 2°40.359 245.2 14.4 242 7.7
2003-03-19 08:24:09 51°9.833 2°40.331 244.4 14.4 241 7.8
2003-03-19 08:24:14 51°9.823 2°40.304 243.8 14.3 241 7.8
2003-03-19 08:24:18 51°9.815 2°40.282 243.4 14.3 240 5.7
2003-03-19 08:24:24 51°9.803 2°40.249 242.9 14.3 240 7.8
2003-03-19 08:24:28 51°9.795 2°40.227 242.8 14.4 240 7.7
2003-03-19 08:24:34 51°9.783 2°40.194 242.6 14.4 239 7.7
2003-03-19 08:24:38 51°9.775 2°40.173 242.7 14.4 240 7.7
2003-03-19 08:24:44 51°9.763 2°40.139 243.8 14.5 241 5.6
2003-03-19 08:24:49 51°9.754 2°40.111 245.1 14.4 242 5.7
2003-03-19 08:24:54 51°9.744 2°40.084 245.3 14.3 242 7.7
2003-03-19 08:24:58 51°9.737 2°40.061 245.7 14.3 243 7.6
2003-03-19 08:25:04 51°9.726 2°40.028 246.2 14.3 243 7.6
2003-03-19 08:25:08 51°9.719 2°40.005 245.3 14.3 243 7.6
2003-03-19 08:25:14 51°9.708 2°39.971 246.4 14.3 243 7.7
2003-03-19 08:25:19 51°9.699 2°39.943 246.8 14.3 243 -999
2003-03-19 08:25:24 51°9.691 2°39.914 248.3 14.3 244 7.7
2003-03-19 08:25:30 51°9.681 2°39.88 248.9 14.3 245 7.7
2003-03-19 08:25:34 51°9.674 2°39.857 249.6 14.3 246 7.7
2003-03-19 08:25:38 51°9.667 2°39.834 249.5 14.3 246 7.7
2003-03-19 08:25:44 51°9.658 2°39.799 249.9 14.3 246 7.6
2003-03-19 08:25:49 51°9.649 2°39.771 249.6 14.3 246 7.7
2003-03-19 08:25:54 51°9.641 2°39.742 249.5 14.3 245 5.7
2003-03-19 08:25:58 51°9.634 2°39.719 249 14.4 245 7.7
2003-03-19 08:26:04 51°9.624 2°39.685 248.4 14.4 245 7.7
2003-03-19 08:26:08 51°9.617 2°39.662 248 14.4 244 7.7
2003-03-19 08:26:14 51°9.606 2°39.628 247.5 14.4 244 7.7
2003-03-19 08:26:18 51°9.599 2°39.606 247 14.4 243 7.7
2003-03-19 08:26:24 51°9.588 2°39.571 247.3 14.4 243 7.7
2003-03-19 08:26:29 51°9.579 2°39.543 247.1 14.4 243 5.7
2003-03-19 08:26:34 51°9.57 2°39.515 246.7 14.4 243 7.7
2003-03-19 08:26:38 51°9.563 2°39.492 247 14.4 243 7.7
2003-03-19 08:26:44 51°9.552 2°39.458 247.3 14.4 244 7.7
2003-03-19 08:26:49 51°9.544 2°39.429 247.9 14.4 244 7.7
2003-03-19 08:26:54 51°9.536 2°39.401 248.5 14.3 245 5.7
2003-03-19 08:26:58 51°9.529 2°39.378 249.4 14.3 245 7.7
2003-03-19 08:27:04 51°9.519 2°39.343 249.5 14.3 246 7.7
2003-03-19 08:27:08 51°9.513 2°39.32 249.9 14.3 246 7.7
2003-03-19 08:27:14 51°9.503 2°39.286 249.5 14.3 246 7.7
2003-03-19 08:27:18 51°9.496 2°39.263 248.9 14.4 245 5.7
2003-03-19 08:27:24 51°9.486 2°39.229 248.4 14.4 245 5.7
2003-03-19 08:27:29 51°9.477 2°39.2 247.9 14.3 244 7.7
2003-03-19 08:27:34 51°9.468 2°39.172 246.8 14.4 243 7.7
2003-03-19 08:27:38 51°9.46 2°39.15 246.7 14.4 243 7.7
2003-03-19 08:27:44 51°9.448 2°39.117 245.7 14.3 242 7.7
2003-03-19 08:27:49 51°9.439 2°39.088 245.5 14.3 242 5.7
2003-03-19 08:27:54 51°9.429 2°39.061 245.7 14.3 242 7.7
2003-03-19 08:27:58 51°9.423 2°39.039 246.3 14.3 243 7.7
2003-03-19 08:28:04 51°9.412 2°39.005 246.7 14.3 243 7.7
2003-03-19 08:28:08 51°9.405 2°38.982 247.5 14.3 244 7.7
2003-03-19 08:28:14 51°9.395 2°38.948 247.9 14.3 244 7.7
2003-03-19 08:28:19 51°9.386 2°38.919 248.3 14.3 245 7.7
2003-03-19 08:28:24 51°9.378 2°38.891 248.5 14.3 245 5.6
2003-03-19 08:28:28 51°9.371 2°38.868 248.9 14.2 245 7.1
2003-03-19 08:28:34 51°9.361 2°38.834 248.5 14.2 245 7.7
2003-03-19 08:28:38 51°9.355 2°38.811 248.4 14.3 244 7.7
2003-03-19 08:28:44 51°9.344 2°38.777 248 14.3 244 7.7
2003-03-19 08:28:48 51°9.337 2°38.754 248 14.3 244 7.7
2003-03-19 08:28:54 51°9.327 2°38.72 247.4 14.3 244 7.7
2003-03-19 08:28:58 51°9.319 2°38.698 247.5 14.3 244 -999
2003-03-19 08:29:04 51°9.309 2°38.664 247.5 14.3 243 7.7
2003-03-19 08:29:09 51°9.3 2°38.636 247.3 14.3 243 7.7
2003-03-19 08:29:14 51°9.291 2°38.607 247.5 14.3 244 7.7
2003-03-19 08:29:18 51°9.284 2°38.585 247.3 14.3 243 7.7
2003-03-19 08:29:24 51°9.274 2°38.551 247.6 14.3 244 7.7
2003-03-19 08:29:28 51°9.266 2°38.528 247.2 14.3 243 7.7
2003-03-19 08:29:34 51°9.256 2°38.494 247.4 14.3 243 7.6
2003-03-19 08:29:38 51°9.249 2°38.472 247.3 14.3 243 7.6
2003-03-19 08:29:44 51°9.238 2°38.438 247.4 14.3 243 7.7
2003-03-19 08:29:48 51°9.231 2°38.415 247.2 14.2 243 7.7
2003-03-19 08:29:54 51°9.22 2°38.382 247.3 14.3 243 5.6
2003-03-19 08:29:59 51°9.211 2°38.353 247 14.3 243 7.6
2003-03-19 08:30:04 51°9.202 2°38.326 247.5 14.3 244 7.6
2003-03-19 08:30:09 51°9.193 2°38.298 247.5 14.2 244 7.6
2003-03-19 08:30:14 51°9.185 2°38.269 247.5 14.2 244 7.6
2003-03-19 08:30:18 51°9.178 2°38.246 247.7 14.3 244 7.6
2003-03-19 08:30:24 51°9.167 2°38.212 247.4 14.3 244 -999
2003-03-19 08:30:29 51°9.158 2°38.184 246.8 14.3 243 7.6
2003-03-19 08:30:34 51°9.149 2°38.156 246.5 14.3 243 7.6
2003-03-19 08:30:38 51°9.142 2°38.134 246 14.3 242 7.6
2003-03-19 08:30:44 51°9.13 2°38.101 245.3 14.2 241 7.6
2003-03-19 08:30:49 51°9.121 2°38.074 245.2 14 242 7.5
2003-03-19 08:30:54 51°9.112 2°38.048 245 13.7 242 7.5
2003-03-19 08:30:58 51°9.105 2°38.026 245.4 13.7 242 7.3
2003-03-19 08:31:04 51°9.094 2°37.994 245.3 13.7 242 7.4
2003-03-19 08:31:09 51°9.084 2°37.968 244.6 13.8 241 7.5
2003-03-19 08:31:14 51°9.075 2°37.941 243.8 13.7 240 7.5
2003-03-19 08:31:18 51°9.067 2°37.921 242.8 13.6 240 7.6
2003-03-19 08:31:24 51°9.056 2°37.89 242.6 13.5 239 7.5
2003-03-19 08:31:28 51°9.048 2°37.87 242.1 13.4 239 7.6
2003-03-19 08:31:34 51°9.037 2°37.84 242.4 13.3 239 7.6
2003-03-19 08:31:38 51°9.03 2°37.82 243.7 13.2 240 7.6
2003-03-19 08:31:44 51°9.02 2°37.789 245.5 13.1 242 7.6
2003-03-19 08:31:49 51°9.013 2°37.763 248.9 13 245 5.6
2003-03-19 08:31:54 51°9.007 2°37.736 252.6 12.8 248 7.6
2003-03-19 08:31:58 51°9.003 2°37.715 256 12.7 252 7.6
2003-03-19 08:32:04 51°8.997 2°37.682 259.4 12.7 254 7.6
2003-03-19 08:32:09 51°8.993 2°37.656 261.1 12.5 256 7.4
2003-03-19 08:32:14 51°8.989 2°37.629 262 12.5 256 7.6
2003-03-19 08:32:18 51°8.986 2°37.607 262 12.5 257 7.5
2003-03-19 08:32:24 51°8.981 2°37.575 262 12.5 256 7.6
2003-03-19 08:32:29 51°8.977 2°37.548 261.7 12.4 256 7.6
2003-03-19 08:32:34 51°8.973 2°37.522 261.1 12.4 256 7.3
2003-03-19 08:32:38 51°8.97 2°37.501 260.8 12.3 255 5.6
2003-03-19 08:32:44 51°8.965 2°37.47 260.5 12.3 256 7.6
2003-03-19 08:32:49 51°8.961 2°37.443 260.9 12.3 256 6.9
2003-03-19 08:32:54 51°8.958 2°37.416 263.4 12.3 258 7.6
2003-03-19 08:32:58 51°8.956 2°37.395 267.6 12.2 261 7.5
2003-03-19 08:33:04 51°8.956 2°37.363 273.1 12.1 267 7.6
2003-03-19 08:33:09 51°8.957 2°37.337 278.7 12 272 7.6
2003-03-19 08:33:13 51°8.96 2°37.317 285.9 11.8 278 7.6
2003-03-19 08:33:18 51°8.964 2°37.293 293.8 11.6 284 7.6
2003-03-19 08:33:24 51°8.972 2°37.266 301.6 11.4 292 -999
2003-03-19 08:33:29 51°8.98 2°37.246 309.3 11.2 299 7.7
2003-03-19 08:33:33 51°8.988 2°37.231 317.2 10.9 306 7.7
2003-03-19 08:33:38 51°8.998 2°37.215 325.1 10.6 314 7.8
2003-03-19 08:33:42 51°9.008 2°37.206 334.5 10.3 322 7.9
2003-03-19 08:33:48 51°9.022 2°37.194 344 10.1 330 8
2003-03-19 08:33:54 51°9.038 2°37.189 353.4 9.6 341 8.1
2003-03-19 08:33:58 51°9.048 2°37.188 2.9 9.3 349 8.3
2003-03-19 08:34:04 51°9.062 2°37.19 11.2 8.7 359 8.4
2003-03-19 08:34:08 51°9.071 2°37.192 18.5 8.1 7 8.5
2003-03-19 08:34:14 51°9.083 2°37.198 25.4 7.6 14 8.7
2003-03-19 08:34:18 51°9.09 2°37.203 30 7.3 19 8.7
2003-03-19 08:34:24 51°9.1 2°37.21 33.5 6.9 24 8.8
2003-03-19 08:34:28 51°9.107 2°37.215 37 6.5 27 8.9
2003-03-19 08:34:34 51°9.115 2°37.223 39.5 6 30 9
2003-03-19 08:34:38 51°9.12 2°37.228 41.8 5.6 31 9
2003-03-19 08:34:44 51°9.126 2°37.234 46 4.5 35 9
2003-03-19 08:34:48 51°9.128 2°37.239 51 4 39 9
2003-03-19 08:34:53 51°9.131 2°37.244 55.7 3.3 46 9
2003-03-19 08:34:58 51°9.132 2°37.249 59.1 2.7 51 9
2003-03-19 08:35:04 51°9.134 2°37.254 62.8 2.1 56 9
2003-03-19 08:35:09 51°9.134 2°37.256 66.4 1.6 62 9
2003-03-19 08:35:14 51°9.135 2°37.257 71.8 0.9 70 9
2003-03-19 08:35:18 51°9.135 2°37.257 76.1 0.4 100 9
2003-03-19 08:35:24 51°9.135 2°37.258 80.7 0.3 133 9
2003-03-19 08:35:29 51°9.135 2°37.258 84.4 0.3 150 9
2003-03-19 08:35:34 51°9.134 2°37.258 87.5 0.3 154 9
2003-03-19 08:35:38 51°9.133 2°37.258 89.9 0.4 163 9
2003-03-19 08:35:44 51°9.133 2°37.259 91.7 0.4 166 9
2003-03-19 08:35:49 51°9.132 2°37.259 93.2 0.5 169 9
2003-03-19 08:35:54 51°9.131 2°37.259 94 0.5 171 9
2003-03-19 08:35:58 51°9.13 2°37.258 94.7 0.6 172 9
2003-03-19 08:36:04 51°9.127 2°37.257 95.1 0.6 173 9
2003-03-19 08:36:09 51°9.124 2°37.256 95.3 0.6 172 9
2003-03-19 08:36:14 51°9.123 2°37.256 95.5 0.6 172 9
2003-03-19 08:36:18 51°9.122 2°37.256 95.5 0.6 172 8.9
2003-03-19 08:36:24 51°9.121 2°37.256 95.2 0.6 170 8.9
2003-03-19 08:36:28 51°9.121 2°37.256 95 0.6 170 9
2003-03-19 08:36:34 51°9.12 2°37.257 94.3 0.6 169 8.9
2003-03-19 08:36:38 51°9.12 2°37.257 93.6 0.6 168 8.9
2003-03-19 08:36:44 51°9.119 2°37.258 92.9 0.6 169 8.9
2003-03-19 08:36:49 51°9.118 2°37.258 91.8 0.6 170 8.9
2003-03-19 08:36:53 51°9.117 2°37.258 90.6 0.5 168 8.8
2003-03-19 08:36:58 51°9.116 2°37.259 89.2 0.5 169 8.9
2003-03-19 08:37:04 51°9.115 2°37.259 87.7 0.5 168 8.9
2003-03-19 08:37:08 51°9.115 2°37.259 86 0.5 166 8.9
2003-03-19 08:37:14 51°9.114 2°37.259 84.1 0.5 168 8.9
2003-03-19 08:37:18 51°9.114 2°37.26 82.4 0.5 171 8.9
2003-03-19 08:37:24 51°9.114 2°37.26 80.6 0.4 167 8.9
2003-03-19 08:37:28 51°9.114 2°37.26 78.7 0.4 161 8.9
2003-03-19 08:37:34 51°9.115 2°37.261 77.1 0.4 161 8.9
2003-03-19 08:37:38 51°9.115 2°37.262 75.2 0.3 162 8.9
2003-03-19 08:37:44 51°9.114 2°37.263 73.3 0.3 164 8.9
2003-03-19 08:37:48 51°9.114 2°37.263 71.6 0.3 168 8.8
2003-03-19 08:37:54 51°9.113 2°37.263 69.7 0.2 171 8.8
2003-03-19 08:37:59 51°9.113 2°37.263 67.8 0.2 171 8.9
2003-03-19 08:38:04 51°9.113 2°37.262 66 0.2 171 8.9
2003-03-19 08:38:09 51°9.113 2°37.262 64.2 0.1 170 8.9
2003-03-19 08:38:14 51°9.113 2°37.261 62.4 0.1 187 8.9
2003-03-19 08:38:18 51°9.114 2°37.261 60.5 0.1 194 8.8
2003-03-19 08:38:22 51°9.114 2°37.261 58.7 0.1 242 8.9
2003-03-19 08:38:28 51°9.114 2°37.261 56.9 0.1 274 8.9
2003-03-19 08:38:34 51°9.114 2°37.26 55.3 0.1 290 8.9
2003-03-19 08:38:38 51°9.114 2°37.26 53.8 0.1 308 8.9
2003-03-19 08:38:44 51°9.114 2°37.26 52.5 0.2 317 8.9
2003-03-19 08:38:49 51°9.114 2°37.26 51.4 0.2 328 8.9
2003-03-19 08:38:54 51°9.114 2°37.259 50.6 0.2 321 8.9
2003-03-19 08:38:58 51°9.114 2°37.26 49.8 0.2 322 8.9
2003-03-19 08:39:04 51°9.115 2°37.259 49.1 0.2 322 8.9
2003-03-19 08:39:09 51°9.115 2°37.259 48.5 0.2 325 8.9
2003-03-19 08:39:14 51°9.115 2°37.259 48.2 0.2 327 8.9
2003-03-19 08:39:18 51°9.115 2°37.259 47.7 0.2 329 8.9
2003-03-19 08:39:24 51°9.116 2°37.258 47.3 0.3 330 8.9
2003-03-19 08:39:29 51°9.116 2°37.257 47 0.3 333 8.9
2003-03-19 08:39:34 51°9.116 2°37.257 46.6 0.3 333 8.9
2003-03-19 08:39:38 51°9.116 2°37.257 46.4 0.3 331 8.9
2003-03-19 08:39:44 51°9.117 2°37.257 46.3 0.3 327 8.9
2003-03-19 08:39:49 51°9.117 2°37.257 46 0.3 322 8.8
2003-03-19 08:39:54 51°9.118 2°37.256 45.8 0.3 321 8.9
2003-03-19 08:39:58 51°9.118 2°37.256 45.7 0.3 321 8.9
2003-03-19 08:40:04 51°9.119 2°37.255 45.6 0.3 320 8.6
2003-03-19 08:40:09 51°9.119 2°37.254 45.5 0.3 319 8.8
2003-03-19 08:40:14 51°9.12 2°37.253 45.5 0.3 317 8.9
2003-03-19 08:40:18 51°9.121 2°37.253 45.5 0.4 314 8.9
2003-03-19 08:40:24 51°9.121 2°37.252 45.5 0.4 310 9
2003-03-19 08:40:28 51°9.121 2°37.252 45.5 0.4 307 9
2003-03-19 08:40:34 51°9.121 2°37.252 45.6 0.3 307 8.9
2003-03-19 08:40:38 51°9.121 2°37.251 45.7 0.3 305 9
2003-03-19 08:40:44 51°9.12 2°37.251 46 0.3 298 8.9
2003-03-19 08:40:49 51°9.121 2°37.25 46.3 0.4 300 8.9
2003-03-19 08:40:54 51°9.121 2°37.25 46.6 0.3 296 9
2003-03-19 08:40:58 51°9.121 2°37.249 46.9 0.3 293 9
2003-03-19 08:41:04 51°9.121 2°37.248 47.1 0.3 295 9
2003-03-19 08:41:08 51°9.121 2°37.248 47.6 0.3 290 8.8
2003-03-19 08:41:14 51°9.121 2°37.247 47.9 0.3 293 9
2003-03-19 08:41:18 51°9.121 2°37.247 48.2 0.3 287 9
2003-03-19 08:41:24 51°9.121 2°37.246 48.6 0.3 283 9
2003-03-19 08:41:29 51°9.121 2°37.245 48.7 0.3 279 9
2003-03-19 08:41:33 51°9.122 2°37.244 49.1 0.3 278 9
2003-03-19 08:41:38 51°9.122 2°37.243 49.4 0.4 280 9.1
2003-03-19 08:41:44 51°9.123 2°37.241 49.7 0.4 281 9
2003-03-19 08:41:49 51°9.123 2°37.241 49.9 0.4 276 9
2003-03-19 08:41:54 51°9.123 2°37.24 50.2 0.4 276 9
2003-03-19 08:41:58 51°9.123 2°37.239 50.5 0.4 271 9.1
2003-03-19 08:42:04 51°9.122 2°37.239 50.8 0.4 272 9.1
2003-03-19 08:42:08 51°9.122 2°37.238 51 0.4 270 9.1
2003-03-19 08:42:14 51°9.122 2°37.237 51.4 0.4 267 9.1
2003-03-19 08:42:18 51°9.122 2°37.236 51.6 0.4 265 9.1
2003-03-19 08:42:24 51°9.122 2°37.235 52.1 0.4 265 9.1
2003-03-19 08:42:29 51°9.122 2°37.235 52.2 0.4 263 9.1
2003-03-19 08:42:34 51°9.122 2°37.234 52.5 0.4 261 9
2003-03-19 08:42:38 51°9.122 2°37.233 52.9 0.4 264 9
2003-03-19 08:42:44 51°9.122 2°37.231 53.2 0.6 277 9
2003-03-19 08:42:49 51°9.122 2°37.23 53.6 0.6 269 9
2003-03-19 08:42:54 51°9.122 2°37.229 54 0.5 262 9
2003-03-19 08:42:58 51°9.122 2°37.229 54.4 0.4 257 9
2003-03-19 08:43:04 51°9.121 2°37.228 55 0.4 252 9.1
2003-03-19 08:43:08 51°9.121 2°37.227 55.5 0.4 250 9
2003-03-19 08:43:14 51°9.121 2°37.226 55.9 0.4 248 9
2003-03-19 08:43:18 51°9.122 2°37.225 56.5 0.5 248 9.1
2003-03-19 08:43:24 51°9.121 2°37.224 57 0.5 246 9.1
2003-03-19 08:43:29 51°9.121 2°37.223 57.6 0.5 246 9.1
2003-03-19 08:43:33 51°9.12 2°37.222 58.3 0.5 245 9
2003-03-19 08:43:38 51°9.12 2°37.222 58.8 0.5 243 9.1
2003-03-19 08:43:44 51°9.12 2°37.222 59.5 0.5 245 9.1
2003-03-19 08:43:49 51°9.12 2°37.221 60.2 0.5 246 9.1
2003-03-19 08:43:54 51°9.12 2°37.221 60.8 0.5 244 9.1
2003-03-19 08:43:58 51°9.12 2°37.22 61.4 0.5 244 9.1
2003-03-19 08:44:04 51°9.119 2°37.218 62 0.5 242 9.1
2003-03-19 08:44:08 51°9.119 2°37.218 62.4 0.5 240 9.1
2003-03-19 08:44:14 51°9.118 2°37.216 63.1 0.5 239 9
2003-03-19 08:44:19 51°9.117 2°37.215 63.6 0.5 240 9
2003-03-19 08:44:24 51°9.117 2°37.214 64.2 0.5 239 9
2003-03-19 08:44:29 51°9.117 2°37.213 64.7 0.6 237 9.1
2003-03-19 08:44:33 51°9.116 2°37.212 65.3 0.6 232 9
2003-03-19 08:44:38 51°9.116 2°37.211 66 0.6 229 9
2003-03-19 08:44:44 51°9.115 2°37.21 66.6 0.6 231 9.1
2003-03-19 08:44:49 51°9.115 2°37.209 67.1 0.5 233 8.1
2003-03-19 08:44:54 51°9.115 2°37.207 67.5 0.5 236 9.1
2003-03-19 08:44:59 51°9.114 2°37.206 67.9 0.6 235 9.1
2003-03-19 08:45:04 51°9.114 2°37.205 68.4 0.5 231 9
2003-03-19 08:45:08 51°9.113 2°37.204 68.7 0.6 231 9.1
2003-03-19 08:45:14 51°9.113 2°37.202 69 0.6 230 9.1
2003-03-19 08:45:18 51°9.112 2°37.202 69.5 0.6 231 9
2003-03-19 08:45:24 51°9.111 2°37.202 70.1 0.6 230 9.1
2003-03-19 08:45:29 51°9.111 2°37.201 70.5 0.6 230 9
2003-03-19 08:45:33 51°9.111 2°37.2 71 0.6 231 9
2003-03-19 08:45:38 51°9.11 2°37.199 71.5 0.6 229 9
2003-03-19 08:45:44 51°9.109 2°37.199 71.9 0.6 226 9
2003-03-19 08:45:49 51°9.108 2°37.198 72.5 0.6 225 9
2003-03-19 08:45:53 51°9.108 2°37.197 72.9 0.6 226 9
2003-03-19 08:45:58 51°9.107 2°37.197 73.3 0.6 223 9.1
2003-03-19 08:46:04 51°9.107 2°37.196 73.8 0.5 222 9
2003-03-19 08:46:09 51°9.106 2°37.195 74 0.5 219 9.1
2003-03-19 08:46:14 51°9.105 2°37.194 74.4 0.5 217 9
2003-03-19 08:46:18 51°9.105 2°37.194 74.7 0.5 218 9
2003-03-19 08:46:24 51°9.104 2°37.193 75 0.5 216 9
2003-03-19 08:46:29 51°9.104 2°37.193 75.2 0.5 211 9
2003-03-19 08:46:34 51°9.103 2°37.192 75.4 0.5 210 9
2003-03-19 08:46:38 51°9.103 2°37.191 75.6 0.5 209 9
2003-03-19 08:46:44 51°9.103 2°37.19 75.8 0.4 209 9
2003-03-19 08:46:49 51°9.103 2°37.189 76.1 0.4 206 9
2003-03-19 08:46:54 51°9.102 2°37.188 76.2 0.5 203 9
2003-03-19 08:46:58 51°9.102 2°37.188 76.2 0.5 202 9
2003-03-19 08:47:04 51°9.101 2°37.188 76.3 0.5 201 9
2003-03-19 08:47:09 51°9.1 2°37.188 76.5 0.5 200 9
2003-03-19 08:47:14 51°9.099 2°37.188 76.6 0.5 198 9
2003-03-19 08:47:18 51°9.098 2°37.188 76.7 0.5 196 9
2003-03-19 08:47:24 51°9.098 2°37.188 76.5 0.5 195 9
2003-03-19 08:47:28 51°9.098 2°37.188 76.2 0.4 196 9
2003-03-19 08:47:34 51°9.098 2°37.187 75.4 0.4 196 9
2003-03-19 08:47:38 51°9.098 2°37.187 74.8 0.4 197 9
2003-03-19 08:47:44 51°9.097 2°37.186 73.7 0.4 196 8.9
2003-03-19 08:47:49 51°9.097 2°37.186 72.9 0.3 196 9
2003-03-19 08:47:54 51°9.096 2°37.186 71.5 0.3 197 8.9
2003-03-19 08:47:58 51°9.096 2°37.186 70.6 0.3 202 8.9
2003-03-19 08:48:03 51°9.095 2°37.186 69.1 0.3 199 8.9
2003-03-19 08:48:09 51°9.095 2°37.186 67.8 0.3 204 9
2003-03-19 08:48:14 51°9.095 2°37.185 66.4 0.2 212 8.9
2003-03-19 08:48:18 51°9.094 2°37.185 65.2 0.2 212 8.9
2003-03-19 08:48:22 51°9.093 2°37.185 63.8 0.2 219 9
2003-03-19 08:48:28 51°9.093 2°37.185 62.5 0.2 226 8.9
2003-03-19 08:48:33 51°9.093 2°37.185 61.2 0.2 232 9
2003-03-19 08:48:38 51°9.093 2°37.185 59.9 0.2 231 9
2003-03-19 08:48:42 51°9.093 2°37.185 58.7 0.2 241 9
2003-03-19 08:48:48 51°9.093 2°37.184 57.3 0.2 255 9